map of SEZ home
SEZ - Airport
Location
City:  Mahé, Mahé Island, Pointe Larue (Pointe La Rue, Pwent Lari), Seychelles
Near (Alt.):Victoria
Name:Seychelles International Airport
ICAO:FSIA
IATA:SEZ

Details
Type:Airport (Aerodrome, Airfield)
Use:Public/Civil, International (customs port of entry)
Latitude:4°40'28"S (-4.674341)
Longitude:55°31'19"E (55.521839)
Datum:WGS 1984
Elevation:10 ft (3 m)
Variation:5.11°W (WMM2015v2 magnetic declination)
0.00° annual change
Runways:1
Longest:9800 × 151 ft (2987 × 46 m), paved

Time
Time Zone:UTC+4
Local Time:

Weather
METAR:FSIA 041400Z 32007KT 9999 BKN025 29/24 Q1010 NOSIG
TAF:FSIA 040502Z 0406/0506 33012KT 9999 SCT024= TAF KSVN 040500Z 0405/0511 31006KT 9999 BKN009 QNH3000INS
BECMG 0407/0408 31006KT 9999 SCT015 QNH3005INS
BECMG 0415/0416 31006KT 9999 FEW120 QNH3005INS TX21/0420Z TN08/0412Z

Related Locations
Nearby:
Farthest:UAH: 11043 mi / 17772 km
Ua Huka, Marquesas Islands, PF

Find:

   beyond  
but within

Other Information
Maps:
NOTAMs:
Links:
Sources:

  
  • flag of Seychelles
  

Sectional Chart

Flight Planning
at skyvector.com

Satellite Image

Google Maps Satellite view

 

Copyright © 2004-2019 Karl L. Swartz. All rights reserved.
The Great Circle Mapper name and logo are trademarks of the Great Circle Mapper.
All other trademarks mentioned herein belong to their respective owners.
Please see credits for attibutions and further copyright information.

  Follow gcmap on Facebook Follow gcmap on Twitter GCmap on LinkedIn

hCard Microformat

Geo Microformat